Terminal Aerodrome Forecast
Issued by NWS Wilmington, OH

Home | Current Version | Previous Version | Text Only | Print | Product List | Glossary On
Versions: 1 2 3 4 5 6 7 8 9 10 11 12 13
000
FTUS41 KILN 230540
TAFDAY
TAF
KDAY 230540Z 2306/2406 06010KT P6SM BKN200
     FM231500 12012G20KT P6SM VCSH OVC070
     FM231800 12012G20KT P6SM -SHRA OVC040
     FM232100 12012G20KT 5SM -SHRA OVC025
     FM240300 11012KT P6SM VCSH OVC025=

USA.gov is the U.S. government's official web portal to all federal, state and local government web resources and services.